Time;durP1;ratioP1;P1;durP2;ratioP2;P2;SDS_P1;SDS_P2;PMS_P1;PMS_P2;Temp;Humidity;BMP_temperature;BMP_pressure;BME280_temperature;BME280_humidity;BME280_pressure;Samples;Min_cycle;Max_cycle;Signal;HPM_P1;HPM_P2
2022/12/21 07:06:23;;;;;;;12.13;6.68;;;;;;;7.90;100.00;100840.22;5279560;28;20391;-69
2022/12/21 07:08:55;;;;;;;13.65;7.63;;;;;;;7.90;100.00;100839.38;5280248;28;20040;-70
2022/12/21 07:11:29;;;;;;;10.43;6.80;;;;;;;7.90;100.00;100833.84;5278950;28;20033;-70
2022/12/21 07:14:01;;;;;;;11.40;6.40;;;;;;;7.87;100.00;100839.91;5278768;28;20032;-70
2022/12/21 07:16:32;;;;;;;11.10;7.07;;;;;;;7.92;100.00;100828.88;5279376;28;20392;-70
2022/12/21 07:19:06;;;;;;;10.32;7.40;;;;;;;7.91;100.00;100844.63;5269562;28;20037;-70
2022/12/21 07:21:38;;;;;;;9.70;6.32;;;;;;;7.97;100.00;100839.94;5259171;28;20032;-70
2022/12/21 07:24:09;;;;;;;13.45;7.53;;;;;;;7.96;100.00;100852.09;5259218;28;20029;-70
2022/12/21 07:26:41;;;;;;;11.20;6.07;;;;;;;7.97;100.00;100845.47;5257837;28;20068;-70
2022/12/21 07:29:12;;;;;;;12.52;7.85;;;;;;;8.03;100.00;100845.22;5264822;28;20487;-71
2022/12/21 07:31:43;;;;;;;10.65;6.32;;;;;;;8.02;100.00;100849.06;5274456;28;20020;-68
2022/12/21 07:34:15;;;;;;;9.27;6.78;;;;;;;8.05;100.00;100855.97;5258276;28;20025;-70
2022/12/21 07:36:46;;;;;;;13.73;6.70;;;;;;;7.97;100.00;100862.03;5259241;28;20103;-70
2022/12/21 07:39:17;;;;;;;13.73;6.35;;;;;;;8.00;100.00;100867.88;5265239;28;20029;-71
2022/12/21 07:41:48;;;;;;;9.45;5.90;;;;;;;8.01;100.00;100872.28;5270889;28;20021;-71
2022/12/21 07:44:20;;;;;;;9.50;5.60;;;;;;;7.97;100.00;100876.66;5258193;28;20104;-70
2022/12/21 07:46:51;;;;;;;8.77;6.15;;;;;;;7.93;100.00;100889.38;5261203;28;20023;-70
2022/12/21 07:49:22;;;;;;;9.75;5.82;;;;;;;7.93;100.00;100883.03;5258507;28;20392;-70
2022/12/21 07:51:54;;;;;;;9.15;6.50;;;;;;;7.91;100.00;100893.50;5259012;28;20021;-70
2022/12/21 07:54:25;;;;;;;9.35;6.78;;;;;;;7.92;100.00;100903.44;5257589;28;20127;-70
2022/12/21 07:56:57;;;;;;;9.27;6.18;;;;;;;7.88;100.00;100899.59;5258794;28;20087;-70
2022/12/21 07:59:30;;;;;;;7.95;5.72;;;;;;;7.89;100.00;100901.25;5258385;28;20060;-71
2022/12/21 08:02:02;;;;;;;8.07;7.20;;;;;;;7.92;100.00;100897.94;5268259;28;20024;-70
2022/12/21 08:04:33;;;;;;;13.65;7.72;;;;;;;7.89;100.00;100895.72;5260987;28;20060;-70
2022/12/21 08:07:05;;;;;;;11.80;6.97;;;;;;;7.87;100.00;100900.66;5258353;28;20089;-70
2022/12/21 08:09:37;;;;;;;10.68;6.70;;;;;;;7.88;100.00;100891.31;5257317;28;20032;-70
2022/12/21 08:12:08;;;;;;;11.73;7.80;;;;;;;7.91;100.00;100879.72;5258510;28;20017;-70
2022/12/21 08:14:39;;;;;;;12.02;7.40;;;;;;;7.90;100.00;100878.03;5257097;28;20029;-72
2022/12/21 08:17:11;;;;;;;16.13;8.45;;;;;;;7.91;100.00;100880.53;5261519;28;20021;-69
2022/12/21 08:19:42;;;;;;;11.25;8.13;;;;;;;8.03;100.00;100883.91;5262354;28;20075;-68
2022/12/21 08:22:13;;;;;;;12.48;8.27;;;;;;;8.01;100.00;100893.56;5251015;28;20060;-68
2022/12/21 08:24:45;;;;;;;12.93;7.60;;;;;;;8.00;100.00;100897.41;5264764;28;20495;-69
2022/12/21 08:27:16;;;;;;;12.00;7.53;;;;;;;7.99;100.00;100901.28;5264154;28;20401;-69
2022/12/21 08:29:47;;;;;;;13.20;8.43;;;;;;;8.07;100.00;100897.97;5263380;28;20036;-69
2022/12/21 08:32:19;;;;;;;10.70;8.30;;;;;;;8.10;100.00;100900.19;5264063;28;20471;-69
2022/12/21 08:34:50;;;;;;;13.70;8.43;;;;;;;8.09;100.00;100898.53;5255833;28;20072;-69
2022/12/21 08:37:24;;;;;;;15.10;9.13;;;;;;;8.14;100.00;100901.31;5254454;28;20025;-68
2022/12/21 08:39:55;;;;;;;14.82;9.93;;;;;;;8.08;100.00;100894.13;5244010;28;20113;-68
2022/12/21 08:42:27;;;;;;;13.95;8.85;;;;;;;8.09;100.00;100901.31;5254538;28;20120;-69
2022/12/21 08:44:58;;;;;;;13.38;8.82;;;;;;;8.11;100.00;100893.59;5263558;28;20044;-68
2022/12/21 08:47:29;;;;;;;15.27;8.88;;;;;;;8.14;100.00;100894.97;5264683;28;20024;-68
2022/12/21 08:50:01;;;;;;;14.77;10.27;;;;;;;8.16;100.00;100898.31;5263130;28;20029;-68
2022/12/21 08:52:44;;;;;;;15.85;10.32;;;;;;;8.09;100.00;100908.78;5264623;28;20106;-67
2022/12/21 08:55:15;;;;;;;18.10;10.75;;;;;;;8.11;100.00;100904.63;5249224;28;20387;-68
2022/12/21 08:57:47;;;;;;;18.15;12.60;;;;;;;8.13;100.00;100907.97;5242056;28;20025;-69
2022/12/21 09:00:18;;;;;;;21.60;12.25;;;;;;;8.15;100.00;100902.97;5243365;28;20037;-70
2022/12/21 09:02:50;;;;;;;15.65;12.27;;;;;;;8.16;100.00;100909.34;5242803;28;20132;-68
2022/12/21 09:05:21;;;;;;;21.00;12.85;;;;;;;8.24;100.00;100906.88;5241710;28;20056;-68
2022/12/21 09:07:52;;;;;;;21.10;13.25;;;;;;;8.22;100.00;100903.53;5243017;28;20079;-68
2022/12/21 09:10:24;;;;;;;21.05;13.35;;;;;;;8.30;100.00;100895.84;5242954;28;20037;-68
2022/12/21 09:12:56;;;;;;;19.73;13.57;;;;;;;8.25;100.00;100893.88;5245320;28;20376;-68
2022/12/21 09:15:27;;;;;;;23.80;15.73;;;;;;;8.26;100.00;100890.84;5261301;28;20028;-68
2022/12/21 09:17:58;;;;;;;23.65;13.95;;;;;;;8.28;100.00;100894.19;5282534;28;20020;-68
2022/12/21 09:20:30;;;;;;;23.70;14.55;;;;;;;8.27;100.00;100895.25;5267505;28;20079;-69
2022/12/21 09:23:02;;;;;;;22.85;16.13;;;;;;;8.30;100.00;100879.25;5263563;28;20020;-69
2022/12/21 09:25:34;;;;;;;19.30;13.63;;;;;;;8.34;100.00;100883.97;5260178;28;20108;-70
2022/12/21 09:28:05;;;;;;;21.17;14.13;;;;;;;8.33;100.00;100892.50;5257297;28;20159;-68
2022/12/21 09:30:36;;;;;;;20.50;14.73;;;;;;;8.36;100.00;100894.72;5242838;28;20021;-68
2022/12/21 09:33:08;;;;;;;20.90;13.48;;;;;;;8.38;100.00;100892.53;5241448;28;20395;-69
2022/12/21 09:35:39;;;;;;;17.02;13.48;;;;;;;8.41;100.00;100898.38;5242634;28;20489;-68
2022/12/21 09:38:11;;;;;;;23.25;14.10;;;;;;;8.31;100.00;100897.47;5242351;28;20057;-68
2022/12/21 09:40:42;;;;;;;23.75;15.50;;;;;;;8.43;100.00;100906.38;5258703;28;20039;-69
2022/12/21 09:43:29;;;;;;;21.02;13.63;;;;;;;8.50;100.00;100909.72;5244584;28;20461;-69
2022/12/21 09:46:04;;;;;;;21.35;14.18;;;;;;;8.56;100.00;100907.78;5254271;28;20044;-68
2022/12/21 09:48:44;;;;;;;18.27;13.88;;;;;;;8.52;100.00;100920.50;5242392;28;20033;-69
2022/12/21 09:51:27;;;;;;;19.83;13.35;;;;;;;8.54;100.00;100927.44;5241850;28;20052;-69
2022/12/21 09:54:04;;;;;;;20.83;14.13;;;;;;;8.52;100.00;100924.09;5241646;28;20044;-68
2022/12/21 09:56:40;;;;;;;21.73;14.98;;;;;;;8.50;100.00;100920.78;5241943;28;20022;-67
2022/12/21 09:59:14;;;;;;;19.38;13.77;;;;;;;8.49;100.00;100919.94;5241441;28;20025;-69
2022/12/21 10:02:31;;;;;;;18.13;12.25;;;;;;;8.54;100.00;100919.13;5243069;28;20037;-69
2022/12/21 10:05:21;;;;;;;21.00;12.85;;;;;;;8.56;100.00;100927.13;5263011;28;20057;-69
2022/12/21 10:08:23;;;;;;;18.17;12.43;;;;;;;8.55;100.00;100918.00;5261783;28;20060;-68
2022/12/21 10:11:16;;;;;;;17.30;12.68;;;;;;;8.51;100.00;100927.94;5244096;28;20116;-69
2022/12/21 10:14:00;;;;;;;18.48;13.65;;;;;;;8.51;100.00;100922.41;5245696;28;20399;-68
2022/12/21 10:16:50;;;;;;;24.02;13.60;;;;;;;8.53;100.00;100914.69;5241469;28;20108;-68
2022/12/21 10:19:34;;;;;;;19.98;12.00;;;;;;;8.53;100.00;100920.22;5249115;28;20072;-69
2022/12/21 10:22:41;;;;;;;18.45;11.50;;;;;;;8.59;100.00;100932.97;5261446;28;20357;-69
2022/12/21 10:25:24;;;;;;;16.95;12.23;;;;;;;8.52;100.00;100924.09;5240466;28;20148;-69
2022/12/21 10:28:21;;;;;;;18.98;13.52;;;;;;;8.56;100.00;100922.44;5262335;28;20033;-69
2022/12/21 10:31:02;;;;;;;16.52;11.45;;;;;;;8.53;100.00;100924.91;5262381;28;20024;-69
2022/12/21 10:33:38;;;;;;;16.30;11.57;;;;;;;8.55;100.00;100915.25;5253989;28;20049;-69
2022/12/21 10:36:15;;;;;;;16.80;10.93;;;;;;;8.54;100.00;100913.59;5246272;28;20032;-68
2022/12/21 10:38:47;;;;;;;20.50;11.77;;;;;;;8.53;100.00;100919.41;5261566;28;20021;-69
2022/12/21 10:41:25;;;;;;;21.42;11.80;;;;;;;8.60;100.00;100915.25;5261548;28;20114;-69
2022/12/21 10:44:00;;;;;;;16.83;11.15;;;;;;;8.68;100.00;100911.94;5261206;28;20476;-69
2022/12/21 10:46:34;;;;;;;16.07;11.07;;;;;;;8.63;100.00;100895.34;5261979;28;20391;-69
2022/12/21 10:49:18;;;;;;;17.98;10.93;;;;;;;8.64;100.00;100896.16;5262023;28;20040;-68
2022/12/21 10:51:49;;;;;;;18.42;10.95;;;;;;;8.65;100.00;100884.84;5262052;28;20028;-68
2022/12/21 10:54:26;;;;;;;20.40;10.20;;;;;;;8.68;100.00;100889.81;5246273;28;20368;-69
2022/12/21 10:56:59;;;;;;;18.95;11.38;;;;;;;8.67;100.00;100888.19;5240702;28;20033;-69
2022/12/21 10:59:40;;;;;;;15.32;10.13;;;;;;;8.68;100.00;100877.94;5241309;28;20374;-68
2022/12/21 11:02:34;;;;;;;16.75;11.23;;;;;;;8.66;100.00;100880.16;5241325;28;20471;-69
2022/12/21 11:05:25;;;;;;;16.17;10.95;;;;;;;8.71;100.00;100877.38;5240349;28;20392;-68
2022/12/21 11:08:12;;;;;;;17.25;10.98;;;;;;;8.72;100.00;100879.06;5240954;28;20034;-68
2022/12/21 11:10:46;;;;;;;17.20;11.95;;;;;;;8.68;100.00;100873.22;5240893;28;20033;-68
2022/12/21 11:13:24;;;;;;;18.77;12.77;;;;;;;8.68;100.00;100878.75;5243276;28;20032;-68
2022/12/21 11:16:09;;;;;;;23.45;15.15;;;;;;;8.67;100.00;100868.81;5261990;28;20055;-69
2022/12/21 11:18:43;;;;;;;20.40;12.15;;;;;;;8.65;100.00;100879.31;5260931;28;20021;-70
2022/12/21 11:21:23;;;;;;;16.38;12.30;;;;;;;8.62;100.00;100879.88;5261911;28;20029;-69
2022/12/21 11:24:03;;;;;;;16.58;11.52;;;;;;;8.60;100.00;100876.56;5256687;28;20017;-70
2022/12/21 11:26:41;;;;;;;17.33;11.43;;;;;;;8.61;100.00;100869.91;5259151;28;20017;-69
2022/12/21 11:29:45;;;;;;;17.77;12.75;;;;;;;8.60;100.00;100882.09;5258129;28;20448;-68
2022/12/21 11:32:19;;;;;;;17.15;12.05;;;;;;;8.62;100.00;100879.06;5260322;28;20116;-69
2022/12/21 11:34:53;;;;;;;19.88;13.00;;;;;;;8.64;100.00;100871.28;5261410;28;20043;-68
2022/12/21 11:37:44;;;;;;;18.65;12.32;;;;;;;8.74;100.00;100870.47;5261177;28;20466;-68
2022/12/21 11:40:21;;;;;;;17.42;11.73;;;;;;;8.65;100.00;100871.03;5260827;28;20487;-69
2022/12/21 11:43:02;;;;;;;17.02;11.57;;;;;;;8.68;100.00;100866.88;5261482;28;20065;-69
2022/12/21 11:46:03;;;;;;;30.98;24.88;;;;;;;8.71;100.00;100872.69;5259529;28;20036;-69
2022/12/21 11:48:48;;;;;;;16.70;13.45;;;;;;;8.66;100.00;100863.56;5261555;28;20029;-68
2022/12/21 11:51:50;;;;;;;20.63;12.55;;;;;;;8.75;100.00;100872.16;5262583;28;20456;-69
2022/12/21 11:54:29;;;;;;;23.73;13.27;;;;;;;8.69;100.00;100871.28;5264487;28;20108;-68
2022/12/21 11:57:21;;;;;;;19.73;12.50;;;;;;;8.71;100.00;100867.16;5265624;28;20521;-68
2022/12/21 12:00:10;;;;;;;19.63;11.05;;;;;;;8.72;100.00;100862.47;5264205;28;20029;-68
2022/12/21 12:03:05;;;;;;;17.27;10.48;;;;;;;8.73;100.00;100855.00;5264485;28;20021;-69
2022/12/21 12:05:50;;;;;;;19.50;12.02;;;;;;;8.71;100.00;100853.31;5264801;28;20052;-69
2022/12/21 12:08:55;;;;;;;19.20;11.27;;;;;;;8.70;100.00;100854.44;5255329;28;20429;-67
2022/12/21 12:11:38;;;;;;;23.23;11.63;;;;;;;8.70;100.00;100848.09;5253680;28;20024;-67
2022/12/21 12:14:39;;;;;;;16.52;11.23;;;;;;;8.73;100.00;100846.69;5255383;28;20164;-68
2022/12/21 12:17:27;;;;;;;17.48;11.95;;;;;;;8.75;100.00;100833.44;5243787;28;20168;-69
2022/12/21 12:20:36;;;;;;;16.23;10.65;;;;;;;8.75;100.00;100834.25;5254479;28;20521;-67
2022/12/21 12:23:13;;;;;;;15.45;9.80;;;;;;;8.79;100.00;100837.28;5247206;28;20060;-67
2022/12/21 12:26:17;;;;;;;17.23;9.40;;;;;;;8.78;100.00;100830.09;5266574;28;20036;-68
2022/12/21 12:29:00;;;;;;;17.60;11.55;;;;;;;8.82;100.00;100825.66;5284505;28;20044;-68
2022/12/21 12:31:37;;;;;;;20.13;10.60;;;;;;;8.82;100.00;100823.75;5285288;28;20379;-68
2022/12/21 12:34:23;;;;;;;14.65;10.15;;;;;;;8.77;100.00;100818.22;5257272;28;20033;-68
2022/12/21 12:37:18;;;;;;;15.02;11.20;;;;;;;8.85;100.00;100820.41;5260685;28;20041;-67
2022/12/21 12:40:16;;;;;;;17.75;9.38;;;;;;;8.85;100.00;100812.13;5240578;28;20083;-67
2022/12/21 12:42:56;;;;;;;14.93;10.10;;;;;;;8.86;100.00;100810.19;5242984;28;20084;-67
2022/12/21 12:45:50;;;;;;;18.67;10.10;;;;;;;8.88;100.00;100805.19;5243649;28;20498;-67
2022/12/21 12:48:39;;;;;;;15.50;8.75;;;;;;;8.87;100.00;100804.38;5256219;28;20020;-68
2022/12/21 12:51:35;;;;;;;14.38;8.82;;;;;;;8.79;100.00;100804.09;5284156;28;20056;-68
2022/12/21 12:54:35;;;;;;;17.87;9.93;;;;;;;8.87;100.00;100798.00;5243371;28;20026;-68
2022/12/21 12:57:38;;;;;;;14.10;10.15;;;;;;;8.90;100.00;100795.53;5242694;28;20297;-68
2022/12/21 13:00:13;;;;;;;29.65;26.10;;;;;;;8.90;100.00;100791.94;5243308;28;20029;-68
2022/12/21 13:03:00;;;;;;;17.15;10.85;;;;;;;8.92;100.00;100793.31;5253794;28;20065;-69
2022/12/21 13:05:43;;;;;;;13.90;8.88;;;;;;;8.85;100.00;100803.00;5263489;28;20049;-67
2022/12/21 13:08:27;;;;;;;13.32;9.07;;;;;;;8.83;100.00;100800.50;5262552;28;20033;-69
2022/12/21 13:11:20;;;;;;;16.67;10.13;;;;;;;8.92;100.00;100803.53;5262443;28;20107;-69
2022/12/21 13:14:20;;;;;;;13.85;7.75;;;;;;;8.87;100.00;100795.22;5246360;28;20045;-69
2022/12/21 13:16:57;;;;;;;10.70;8.32;;;;;;;8.88;100.00;100791.38;5247317;28;20104;-68
2022/12/21 13:19:30;;;;;;;12.32;9.30;;;;;;;8.83;100.00;100792.22;5263407;28;20040;-68
2022/12/21 13:22:05;;;;;;;11.10;8.02;;;;;;;8.85;100.00;100783.63;5263490;28;20025;-69
2022/12/21 13:24:46;;;;;;;10.35;6.97;;;;;;;8.80;100.00;100770.66;5245705;28;20060;-65
2022/12/21 13:27:27;;;;;;;13.52;7.18;;;;;;;8.81;100.00;100777.00;5251536;28;20052;-66
2022/12/21 13:30:12;;;;;;;9.32;6.90;;;;;;;8.86;100.00;100779.75;5261767;28;20388;-67
2022/12/21 13:32:47;;;;;;;10.82;6.50;;;;;;;8.81;100.00;100772.28;5241854;28;20061;-66
2022/12/21 13:35:34;;;;;;;12.25;7.40;;;;;;;8.82;100.00;100767.59;5242903;28;20057;-68
2022/12/21 13:38:35;;;;;;;12.05;8.48;;;;;;;8.84;100.00;100762.59;5243162;28;20034;-68
2022/12/21 13:41:19;;;;;;;9.32;7.22;;;;;;;8.95;100.00;100755.97;5244294;28;20021;-69
2022/12/21 13:44:02;;;;;;;10.73;8.18;;;;;;;9.05;100.00;100758.69;5254220;28;20028;-69
2022/12/21 13:46:35;;;;;;;9.73;8.35;;;;;;;9.25;100.00;100765.25;5263334;28;20040;-70
2022/12/21 13:49:26;;;;;;;14.95;8.10;;;;;;;9.15;100.00;100779.94;5265851;28;20475;-70
2022/12/21 13:52:44;;;;;;;13.80;7.57;;;;;;;9.15;100.00;100768.88;5265601;28;20543;-70
2022/12/21 13:55:43;;;;;;;63.15;47.65;;;;;;;9.18;100.00;100778.56;5268001;28;20071;-69
2022/12/21 13:58:40;;;;;;;11.07;7.30;;;;;;;9.35;100.00;100781.81;5270649;28;20017;-69
2022/12/21 14:01:30;;;;;;;11.02;7.25;;;;;;;9.23;100.00;100781.31;5266230;28;20056;-69
2022/12/21 14:04:40;;;;;;;15.13;7.03;;;;;;;9.26;100.00;100783.53;5264890;28;20111;-70
2022/12/21 14:07:44;;;;;;;7.82;6.07;;;;;;;9.19;100.00;100783.81;5269296;28;20048;-69
2022/12/21 14:10:16;;;;;;;11.32;7.00;;;;;;;9.32;100.00;100782.38;5265138;28;20024;-68
2022/12/21 14:13:18;;;;;;;12.50;9.07;;;;;;;9.21;100.00;100778.84;5262603;28;20433;-68
2022/12/21 14:15:57;;;;;;;9.27;5.78;;;;;;;9.22;100.00;100787.97;5261043;28;20035;-70
2022/12/21 14:18:37;;;;;;;10.07;8.02;;;;;;;9.29;100.00;100782.97;5262977;28;20028;-69
2022/12/21 14:21:30;;;;;;;15.90;7.25;;;;;;;9.26;100.00;100775.22;5282932;28;20044;-69
2022/12/21 14:24:13;;;;;;;9.98;5.85;;;;;;;9.53;100.00;100769.28;5248314;28;20024;-69
2022/12/21 14:26:57;;;;;;;9.38;6.07;;;;;;;9.31;100.00;100770.50;5279598;28;20356;-68
2022/12/21 14:29:30;;;;;;;345.92;299.10;;;;;;;9.30;100.00;100773.53;5280962;28;20039;-69
2022/12/21 14:32:12;;;;;;;30.13;25.08;;;;;;;9.28;100.00;100765.53;5240661;28;20137;-69
2022/12/21 14:34:48;;;;;;;13.60;7.72;;;;;;;9.20;100.00;100754.19;5247388;28;20040;-69
2022/12/21 14:37:24;;;;;;;11.02;6.57;;;;;;;9.31;100.00;100753.88;5262584;28;20555;-68
2022/12/21 14:40:24;;;;;;;15.40;10.52;;;;;;;9.30;100.00;100751.38;5262479;28;20371;-66
2022/12/21 14:43:00;;;;;;;16.73;7.53;;;;;;;9.44;100.00;100752.44;5246517;28;20046;-66
2022/12/21 14:45:34;;;;;;;11.75;6.47;;;;;;;9.27;100.00;100749.19;5283360;28;20056;-67
2022/12/21 14:48:28;;;;;;;10.27;6.53;;;;;;;9.49;100.00;100744.13;5282787;28;20379;-66
2022/12/21 14:51:03;;;;;;;8.20;6.30;;;;;;;9.23;100.00;100746.19;5260127;28;20044;-67
2022/12/21 14:53:35;;;;;;;;;;;;;;;9.41;100.00;100747.47;5276955;28;20486;-68
2022/12/21 14:56:10;;;;;;;9.50;6.32;;;;;;;9.17;100.00;100736.22;5240002;28;19913;-68
2022/12/21 14:58:46;;;;;;;8.88;6.90;;;;;;;9.19;100.00;100722.13;5241296;28;20025;-67
2022/12/21 15:01:22;;;;;;;8.95;6.25;;;;;;;9.14;100.00;100723.78;5241071;28;20029;-68
2022/12/21 15:03:58;;;;;;;9.32;6.80;;;;;;;9.13;100.00;100719.38;5240209;28;20028;-68
2022/12/21 15:06:39;;;;;;;10.93;7.63;;;;;;;9.13;100.00;100719.38;5241348;28;20026;-68
2022/12/21 15:09:19;;;;;;;9.82;6.53;;;;;;;9.15;100.00;100719.06;5254711;28;20306;-68
2022/12/21 15:11:55;;;;;;;11.23;6.47;;;;;;;9.10;100.00;100719.09;5261016;28;20025;-67
2022/12/21 15:14:35;;;;;;;12.45;6.93;;;;;;;9.08;100.00;100719.41;5261711;28;20029;-71
2022/12/21 15:17:15;;;;;;;8.75;6.30;;;;;;;9.08;100.00;100715.81;5261325;28;20468;-69
2022/12/21 15:19:55;;;;;;;12.00;9.30;;;;;;;9.03;100.00;100708.34;5261561;28;20033;-69
2022/12/21 15:22:49;;;;;;;12.65;9.23;;;;;;;9.10;100.00;100708.03;5261627;28;20025;-68
2022/12/21 15:25:25;;;;;;;13.38;8.98;;;;;;;9.02;100.00;100706.69;5253468;28;20554;-69
2022/12/21 15:28:01;;;;;;;40.85;36.30;;;;;;;8.98;100.00;100711.13;5244460;28;20120;-68
2022/12/21 15:30:46;;;;;;;22.65;19.00;;;;;;;9.06;100.00;100710.53;5243989;28;20021;-69
2022/12/21 15:33:32;;;;;;;12.35;9.07;;;;;;;9.09;100.00;100693.38;5245191;28;20543;-69
2022/12/21 15:36:11;;;;;;;13.55;9.32;;;;;;;9.16;100.00;100681.19;5245130;28;20028;-70
2022/12/21 15:38:45;;;;;;;12.43;8.70;;;;;;;9.02;100.00;100679.00;5244343;28;20079;-70
2022/12/21 15:41:23;;;;;;;13.23;8.50;;;;;;;9.01;100.00;100671.84;5256959;28;20121;-69
2022/12/21 15:44:03;;;;;;;11.40;8.60;;;;;;;9.03;100.00;100675.16;5254664;28;20071;-68
2022/12/21 15:46:49;;;;;;;14.70;10.05;;;;;;;8.96;100.00;100682.09;5264895;28;20060;-69
2022/12/21 15:49:34;;;;;;;12.32;9.25;;;;;;;8.98;100.00;100677.13;5265251;28;20021;-69
2022/12/21 15:52:28;;;;;;;11.25;8.85;;;;;;;8.91;100.00;100669.94;5265056;28;20372;-69
2022/12/21 15:55:10;;;;;;;10.45;9.35;;;;;;;8.91;100.00;100666.34;5265156;28;20032;-69
2022/12/21 15:57:45;;;;;;;11.77;9.68;;;;;;;8.83;100.00;100669.72;5263444;28;20028;-70
2022/12/21 16:00:19;;;;;;;12.77;9.27;;;;;;;8.87;100.00;100665.25;5248997;28;20376;-68
2022/12/21 16:02:54;;;;;;;12.43;8.95;;;;;;;8.85;100.00;100673.84;5244393;28;20379;-69
2022/12/21 16:05:29;;;;;;;14.90;8.43;;;;;;;8.87;100.00;100674.41;5244270;28;20525;-67
2022/12/21 16:08:02;;;;;;;10.18;7.68;;;;;;;8.86;100.00;100660.84;5258043;28;20388;-68
2022/12/21 16:10:38;;;;;;;9.45;7.50;;;;;;;8.89;100.00;100668.56;5265012;28;20032;-67
2022/12/21 16:13:10;;;;;;;9.90;8.13;;;;;;;8.83;100.00;100669.72;5264157;28;20428;-67
2022/12/21 16:15:43;;;;;;;11.48;8.30;;;;;;;8.84;100.00;100665.81;5262746;28;20036;-67
2022/12/21 16:18:16;;;;;;;10.60;6.93;;;;;;;8.87;100.00;100665.25;5243511;28;20052;-68
2022/12/21 16:20:58;;;;;;;8.68;7.45;;;;;;;8.86;100.00;100658.06;5242971;28;20037;-68
2022/12/21 16:23:43;;;;;;;12.13;9.10;;;;;;;8.92;100.00;100659.69;5243853;28;20021;-69
2022/12/21 16:26:22;;;;;;;12.68;7.90;;;;;;;8.85;100.00;100650.91;5243372;28;20032;-69
2022/12/21 16:29:00;;;;;;;11.27;7.85;;;;;;;8.87;100.00;100656.94;5242799;28;20061;-68
2022/12/21 16:31:32;;;;;;;14.25;7.72;;;;;;;8.81;100.00;100667.22;5243826;28;20119;-68
2022/12/21 16:34:20;;;;;;;12.63;7.82;;;;;;;8.93;100.00;100664.13;5256076;28;20400;-67
2022/12/21 16:36:58;;;;;;;11.02;7.45;;;;;;;8.76;100.00;100658.13;5264245;28;20051;-69
